createdAt,value
2018-06-30T00:01:15.440Z,98464.48
2018-06-30T00:03:48.907Z,98465.19
2018-06-30T00:06:17.311Z,98461.23
2018-06-30T00:08:46.208Z,98456.53
2018-06-30T00:11:14.611Z,98451.80
2018-06-30T00:13:42.718Z,98454.18
2018-06-30T00:16:10.836Z,98453.78
2018-06-30T00:18:39.159Z,98458.80
2018-06-30T00:21:07.808Z,98459.01
2018-06-30T00:23:36.164Z,98460.92
2018-06-30T00:26:04.416Z,98455.65
2018-06-30T00:28:32.856Z,98462.98
2018-06-30T00:31:01.585Z,98454.08
2018-06-30T00:33:30.174Z,98451.14
2018-06-30T00:35:58.304Z,98456.16
2018-06-30T00:38:26.468Z,98452.31
2018-06-30T00:40:55.081Z,98455.58
2018-06-30T00:43:23.193Z,98458.25
2018-06-30T00:45:51.696Z,98457.30
2018-06-30T00:48:19.853Z,98454.81
2018-06-30T00:50:48.096Z,98455.84
2018-06-30T00:53:16.191Z,98456.36
2018-06-30T00:55:44.301Z,98450.57
2018-06-30T00:58:12.684Z,98456.89
2018-06-30T01:00:42.356Z,98456.19
2018-06-30T01:03:11.148Z,98449.73
2018-06-30T01:05:39.397Z,98452.90
2018-06-30T01:08:07.648Z,98453.41
2018-06-30T01:10:35.803Z,98456.08
2018-06-30T01:13:03.989Z,98453.78
2018-06-30T01:15:32.624Z,98457.59
2018-06-30T01:18:00.792Z,98451.48
2018-06-30T01:20:28.932Z,98448.86
2018-06-30T01:22:57.026Z,98450.85
2018-06-30T01:25:25.495Z,98450.55
2018-06-30T01:27:54.456Z,98460.52
2018-06-30T01:30:23.032Z,98454.23
2018-06-30T01:32:51.629Z,98454.55
2018-06-30T01:35:19.871Z,98447.84
2018-06-30T01:37:47.961Z,98444.52
2018-06-30T01:40:16.163Z,98446.89
2018-06-30T01:42:44.341Z,98442.79
2018-06-30T01:45:12.428Z,98438.31
2018-06-30T01:47:40.618Z,98429.31
2018-06-30T01:50:08.807Z,98432.32
2018-06-30T01:52:36.911Z,98433.30
2018-06-30T01:55:05.107Z,98430.84
2018-06-30T01:57:33.497Z,98440.64
2018-06-30T02:00:01.871Z,98433.66
2018-06-30T02:02:30.100Z,98435.81
2018-06-30T02:04:58.523Z,98435.00
2018-06-30T02:07:26.685Z,98431.33
2018-06-30T02:09:55.168Z,98437.31
2018-06-30T02:12:23.260Z,98436.97
2018-06-30T02:14:52.231Z,98437.64
2018-06-30T02:17:20.820Z,98441.48
2018-06-30T02:19:48.987Z,98435.88
2018-06-30T02:22:17.243Z,98430.25
2018-06-30T02:24:45.339Z,98436.22
2018-06-30T02:27:13.432Z,98439.05
2018-06-30T02:29:41.487Z,98443.35
2018-06-30T02:32:09.792Z,98446.66
2018-06-30T02:34:37.968Z,98446.34
2018-06-30T02:37:07.270Z,98444.53
2018-06-30T02:39:35.624Z,98444.36
2018-06-30T02:42:03.800Z,98439.55
2018-06-30T02:44:32.035Z,98446.86
2018-06-30T02:47:00.175Z,98441.39
2018-06-30T02:49:28.264Z,98453.01
2018-06-30T02:51:56.544Z,98446.55
2018-06-30T02:54:24.894Z,98442.53
2018-06-30T02:56:53.172Z,98446.37
2018-06-30T02:59:22.015Z,98434.74
2018-06-30T03:01:50.335Z,98442.72
2018-06-30T03:04:18.423Z,98439.39
2018-06-30T03:06:46.735Z,98433.77
2018-06-30T03:09:14.852Z,98442.22
2018-06-30T03:11:43.203Z,98445.03
2018-06-30T03:14:11.317Z,98451.00
2018-06-30T03:16:39.630Z,98446.53
2018-06-30T03:19:07.720Z,98444.69
2018-06-30T03:21:35.993Z,98448.69
2018-06-30T03:24:04.164Z,98440.88
2018-06-30T03:26:32.432Z,98444.38
2018-06-30T03:29:00.547Z,98447.03
2018-06-30T03:31:28.905Z,98442.55
2018-06-30T03:33:57.248Z,98441.72
2018-06-30T03:36:26.146Z,98452.99
2018-06-30T03:38:54.303Z,98447.69
2018-06-30T03:41:22.811Z,98449.02
2018-06-30T03:43:51.571Z,98452.99
2018-06-30T03:46:19.725Z,98445.18
2018-06-30T03:48:47.987Z,98446.02
2018-06-30T03:51:16.067Z,98453.96
2018-06-30T03:53:44.157Z,98453.66
2018-06-30T03:56:12.248Z,98451.83
2018-06-30T03:58:40.368Z,98449.69
2018-06-30T04:01:08.492Z,98453.98
2018-06-30T04:03:36.676Z,98455.83
2018-06-30T04:06:05.941Z,98460.64
2018-06-30T04:08:34.245Z,98460.97
2018-06-30T04:11:02.573Z,98459.64
2018-06-30T04:13:31.664Z,98463.28
2018-06-30T04:16:00.733Z,98464.58
2018-06-30T04:18:28.906Z,98461.41
2018-06-30T04:20:57.250Z,98462.55
2018-06-30T04:23:25.406Z,98461.19
2018-06-30T04:25:53.629Z,98458.54
2018-06-30T04:28:21.969Z,98450.16
2018-06-30T04:30:50.360Z,98436.78
2018-06-30T04:33:18.431Z,98435.11
2018-06-30T04:35:46.664Z,98438.97
2018-06-30T04:38:14.811Z,98430.08
2018-06-30T04:40:42.919Z,98430.07
2018-06-30T04:43:11.013Z,98434.06
2018-06-30T04:45:39.164Z,98434.19
2018-06-30T04:48:07.925Z,98435.10
2018-06-30T04:50:36.010Z,98441.23
2018-06-30T04:53:04.116Z,98442.50
2018-06-30T04:55:32.292Z,98446.57
2018-06-30T04:58:01.088Z,98443.18
2018-06-30T05:00:29.417Z,98440.80
2018-06-30T05:02:57.563Z,98442.22
2018-06-30T05:05:25.657Z,98442.70
2018-06-30T05:07:53.762Z,98440.88
2018-06-30T05:10:21.909Z,98432.79
2018-06-30T05:12:50.147Z,98443.65
2018-06-30T05:15:18.204Z,98431.36
2018-06-30T05:17:46.277Z,98437.72
2018-06-30T05:20:14.357Z,98433.31
2018-06-30T05:22:42.604Z,98431.19
2018-06-30T05:25:10.683Z,98424.25
2018-06-30T05:27:38.772Z,98431.41
2018-06-30T05:30:06.844Z,98426.45
2018-06-30T05:32:34.965Z,98429.80
2018-06-30T05:35:03.432Z,98431.44
2018-06-30T05:37:32.015Z,98427.80
2018-06-30T05:40:00.159Z,98429.19
2018-06-30T05:42:28.582Z,98434.38
2018-06-30T05:44:56.765Z,98437.55
2018-06-30T05:47:24.871Z,98448.28
2018-06-30T05:49:52.932Z,98443.08
2018-06-30T05:52:21.178Z,98439.11
2018-06-30T05:54:49.345Z,98440.77
2018-06-30T05:57:17.448Z,98445.80
2018-06-30T05:59:45.525Z,98442.55
2018-06-30T06:02:13.668Z,98450.73
2018-06-30T06:04:42.364Z,98454.42
2018-06-30T06:07:10.464Z,98458.16
2018-06-30T06:09:38.567Z,98452.56
2018-06-30T06:12:06.668Z,98463.86
2018-06-30T06:14:34.783Z,98457.12
2018-06-30T06:17:03.149Z,98462.39
2018-06-30T06:19:31.215Z,98465.96
2018-06-30T06:21:59.263Z,98459.69
2018-06-30T06:24:27.372Z,98465.72
2018-06-30T06:26:55.457Z,98470.33
2018-06-30T06:29:23.540Z,98464.52
2018-06-30T06:31:51.609Z,98475.27
2018-06-30T06:34:19.680Z,98473.40
2018-06-30T06:36:47.904Z,98472.47
2018-06-30T06:39:16.197Z,98470.61
2018-06-30T06:41:44.343Z,98471.55
2018-06-30T06:44:12.376Z,98475.77
2018-06-30T06:46:40.460Z,98481.23
2018-06-30T06:49:08.540Z,98485.27
2018-06-30T06:51:36.644Z,98481.22
2018-06-30T06:54:04.996Z,98483.23
2018-06-30T06:56:33.071Z,98479.73
2018-06-30T06:59:01.142Z,98481.56
2018-06-30T07:01:29.211Z,98480.05
2018-06-30T07:03:57.317Z,98481.59
2018-06-30T07:06:25.425Z,98480.12
2018-06-30T07:08:53.633Z,98480.73
2018-06-30T07:11:21.829Z,98477.33
2018-06-30T07:13:49.929Z,98476.23
2018-06-30T07:16:18.152Z,98481.77
2018-06-30T07:18:46.252Z,98484.36
2018-06-30T07:21:14.348Z,98485.84
2018-06-30T07:23:42.448Z,98481.84
2018-06-30T07:26:10.570Z,98479.45
2018-06-30T07:28:38.644Z,98473.77
2018-06-30T07:31:06.784Z,98479.25
2018-06-30T07:33:35.448Z,98477.46
2018-06-30T07:36:03.798Z,98486.50
2018-06-30T07:38:32.042Z,98481.69
2018-06-30T07:41:00.104Z,98484.13
2018-06-30T07:43:28.239Z,98472.56
2018-06-30T07:45:56.337Z,98482.11
2018-06-30T07:48:24.395Z,98478.14
2018-06-30T07:50:53.333Z,98480.70
2018-06-30T07:53:21.435Z,98477.19
2018-06-30T07:55:49.519Z,98477.50
2018-06-30T07:58:17.675Z,98475.21
2018-06-30T08:00:45.744Z,98477.06
2018-06-30T08:03:13.834Z,98474.66
2018-06-30T08:05:42.077Z,98474.09
2018-06-30T08:08:11.248Z,98472.52
2018-06-30T08:10:39.483Z,98474.98
2018-06-30T08:13:19.280Z,98483.53
2018-06-30T08:15:47.777Z,98482.27
2018-06-30T08:18:15.963Z,98477.69
2018-06-30T08:20:44.058Z,98474.13
2018-06-30T08:23:12.139Z,98473.30
2018-06-30T08:25:40.234Z,98477.13
2018-06-30T08:28:08.732Z,98474.49
2018-06-30T08:30:37.255Z,98469.76
2018-06-30T08:33:05.428Z,98477.67
2018-06-30T08:35:33.528Z,98474.02
2018-06-30T08:38:01.696Z,98467.34
2018-06-30T08:40:29.852Z,98477.70
2018-06-30T08:42:57.988Z,98478.98
2018-06-30T08:45:26.081Z,98475.08
2018-06-30T08:48:01.389Z,98477.16
2018-06-30T08:50:29.712Z,98480.45
2018-06-30T08:52:57.844Z,98474.91
2018-06-30T08:55:25.963Z,98469.98
2018-06-30T08:57:54.136Z,98483.30
2018-06-30T09:00:22.556Z,98481.88
2018-06-30T09:02:50.644Z,98477.91
2018-06-30T09:05:18.993Z,98469.16
2018-06-30T09:07:47.109Z,98473.14
2018-06-30T10:18:26.811Z,98445.66
2018-06-30T10:20:55.015Z,98444.88
2018-06-30T10:23:23.289Z,98441.87
2018-06-30T10:25:51.387Z,98439.41
2018-06-30T10:28:19.488Z,98430.20
2018-06-30T10:30:47.597Z,98434.99
2018-06-30T10:33:15.687Z,98428.37
2018-06-30T10:35:43.815Z,98424.80
2018-06-30T10:38:12.295Z,98432.48
2018-06-30T10:40:40.412Z,98422.73
2018-06-30T10:43:08.508Z,98418.91
2018-06-30T10:45:36.588Z,98426.45
2018-06-30T10:48:05.212Z,98423.72
2018-06-30T10:50:33.289Z,98416.86
2018-06-30T10:53:01.437Z,98415.17
2018-06-30T10:55:29.546Z,98413.16
2018-06-30T10:57:58.004Z,98415.45
2018-06-30T11:00:26.221Z,98412.61
2018-06-30T11:02:54.185Z,98415.30
2018-06-30T11:05:22.256Z,98412.25
2018-06-30T11:07:50.710Z,98412.64
2018-06-30T11:10:19.056Z,98413.77
2018-06-30T11:12:47.209Z,98418.91
2018-06-30T11:15:15.320Z,98414.39
2018-06-30T11:17:43.412Z,98412.76
2018-06-30T11:20:12.359Z,98406.89
2018-06-30T11:22:40.721Z,98405.99
2018-06-30T11:25:09.362Z,98400.72
2018-06-30T11:27:37.476Z,98400.51
2018-06-30T11:30:05.640Z,98401.43
2018-06-30T11:32:34.051Z,98399.48
2018-06-30T11:35:02.153Z,98391.81
2018-06-30T11:37:30.248Z,98387.75
2018-06-30T11:39:58.308Z,98381.88
2018-06-30T11:42:26.396Z,98383.44
2018-06-30T11:44:54.460Z,98380.31
2018-06-30T11:47:22.941Z,98379.84
2018-06-30T11:49:51.010Z,98384.95
2018-06-30T11:52:19.114Z,98388.48
2018-06-30T11:54:47.755Z,98381.03
2018-06-30T11:57:15.810Z,98378.53
2018-06-30T11:59:45.253Z,98372.98
2018-06-30T12:02:13.472Z,98372.36
2018-06-30T12:04:41.550Z,98381.55
2018-06-30T12:07:10.413Z,98381.86
2018-06-30T12:09:38.508Z,98378.86
2018-06-30T12:12:06.618Z,98374.88
2018-06-30T12:14:34.867Z,98368.52
2018-06-30T12:17:02.967Z,98369.39
2018-06-30T12:19:31.444Z,98369.98
2018-06-30T12:21:59.626Z,98363.32
2018-06-30T12:24:27.734Z,98362.31
2018-06-30T12:26:56.548Z,98362.36
2018-06-30T12:29:24.623Z,98363.28
2018-06-30T12:31:52.702Z,98359.87
2018-06-30T12:34:20.919Z,98357.29
2018-06-30T12:36:49.108Z,98352.70
2018-06-30T12:39:17.207Z,98355.09
2018-06-30T12:41:45.272Z,98353.89
2018-06-30T12:44:13.364Z,98354.28
2018-06-30T12:46:41.456Z,98349.66
2018-06-30T12:49:09.767Z,98352.75
2018-06-30T12:51:37.840Z,98352.88
2018-06-30T12:54:06.134Z,98356.46
2018-06-30T12:56:34.382Z,98349.02
2018-06-30T12:59:02.623Z,98354.34
2018-06-30T13:01:30.712Z,98349.77
2018-06-30T13:03:58.932Z,98345.68
2018-06-30T13:06:27.033Z,98341.73
2018-06-30T13:08:55.467Z,98348.66
2018-06-30T13:11:23.599Z,98338.34
2018-06-30T13:13:51.715Z,98342.78
2018-06-30T13:16:19.812Z,98338.63
2018-06-30T13:18:48.254Z,98338.79
2018-06-30T13:21:16.475Z,98334.72
2018-06-30T13:23:44.869Z,98322.22
2018-06-30T13:26:12.941Z,98327.48
2018-06-30T13:28:41.055Z,98325.84
2018-06-30T13:31:09.283Z,98329.83
2018-06-30T13:33:37.362Z,98333.48
2018-06-30T13:36:05.477Z,98322.48
2018-06-30T13:38:33.550Z,98331.91
2018-06-30T13:41:01.639Z,98328.92
2018-06-30T13:43:29.767Z,98330.62
2018-06-30T13:45:57.939Z,98331.92
2018-06-30T13:48:26.021Z,98331.34
2018-06-30T13:50:54.116Z,98324.69
2018-06-30T13:53:22.219Z,98324.22
2018-06-30T13:55:50.280Z,98324.11
2018-06-30T13:58:18.590Z,98323.80
2018-06-30T14:00:46.715Z,98321.21
2018-06-30T14:03:14.742Z,98313.56
2018-06-30T14:05:43.236Z,98318.16
2018-06-30T14:08:11.323Z,98309.87
2018-06-30T14:10:39.411Z,98306.06
2018-06-30T14:13:07.977Z,98313.06
2018-06-30T14:15:36.158Z,98317.14
2018-06-30T14:18:05.062Z,98325.72
2018-06-30T14:20:33.156Z,98310.69
2018-06-30T14:23:01.212Z,98310.19
2018-06-30T14:25:29.301Z,98313.41
2018-06-30T14:27:57.495Z,98313.94
2018-06-30T14:30:25.736Z,98308.17
2018-06-30T14:32:53.807Z,98307.65
2018-06-30T14:35:21.907Z,98307.96
2018-06-30T14:37:50.066Z,98309.98
2018-06-30T14:40:18.080Z,98306.41
2018-06-30T14:42:46.221Z,98306.77
2018-06-30T14:45:14.301Z,98307.73
2018-06-30T14:47:42.387Z,98305.41
2018-06-30T14:50:10.488Z,98307.72
2018-06-30T14:52:38.917Z,98315.34
2018-06-30T14:55:07.156Z,98310.84
2018-06-30T14:57:35.669Z,98306.87
2018-06-30T15:00:04.523Z,98320.14
2018-06-30T15:02:32.613Z,98312.59
2018-06-30T15:05:01.512Z,98318.88
2018-06-30T15:07:29.922Z,98325.31
2018-06-30T15:09:58.168Z,98322.86
2018-06-30T15:12:26.256Z,98324.95
2018-06-30T15:14:54.544Z,98322.30
2018-06-30T15:17:22.793Z,98314.90
2018-06-30T15:19:51.274Z,98321.68
2018-06-30T15:22:19.373Z,98314.32
2018-06-30T15:24:47.865Z,98323.22
2018-06-30T15:27:16.177Z,98326.91
2018-06-30T15:29:44.488Z,98320.94
2018-06-30T15:32:12.708Z,98326.80
2018-06-30T15:34:40.840Z,98322.84
2018-06-30T15:37:08.924Z,98319.92
2018-06-30T15:39:37.002Z,98322.90
2018-06-30T15:42:05.107Z,98328.12
2018-06-30T15:44:33.179Z,98318.47
2018-06-30T15:47:01.253Z,98321.73
2018-06-30T15:49:29.338Z,98323.31
2018-06-30T15:51:57.423Z,98319.67
2018-06-30T15:54:25.882Z,98313.42
2018-06-30T15:56:54.624Z,98321.91
2018-06-30T15:59:22.704Z,98328.15
2018-06-30T16:01:50.932Z,98312.55
2018-06-30T16:04:19.018Z,98316.58
2018-06-30T16:06:47.118Z,98316.56
2018-06-30T16:09:15.188Z,98315.27
2018-06-30T16:11:43.261Z,98321.48
2018-06-30T16:14:11.354Z,98311.19
2018-06-30T16:16:39.995Z,98318.38
2018-06-30T16:19:08.084Z,98324.23
2018-06-30T16:21:36.330Z,98311.69
2018-06-30T16:24:04.417Z,98321.80
2018-06-30T16:26:32.501Z,98312.50
2018-06-30T16:29:01.145Z,98307.49
2018-06-30T16:31:29.960Z,98313.73
2018-06-30T16:33:58.054Z,98315.45
2018-06-30T16:36:26.677Z,98313.77
2018-06-30T16:38:55.120Z,98318.48
2018-06-30T16:41:23.404Z,98321.01
2018-06-30T16:43:52.285Z,98311.07
2018-06-30T16:46:20.585Z,98312.80
2018-06-30T16:48:48.767Z,98304.21
2018-06-30T16:51:16.848Z,98311.75
2018-06-30T16:53:44.963Z,98311.77
2018-06-30T16:56:13.064Z,98312.33
2018-06-30T16:58:41.241Z,98316.84
2018-06-30T17:01:09.325Z,98317.71
2018-06-30T17:03:37.564Z,98319.19
2018-06-30T17:06:05.836Z,98316.77
2018-06-30T17:08:34.004Z,98313.97
2018-06-30T17:11:02.094Z,98311.59
2018-06-30T17:13:30.232Z,98311.73
2018-06-30T17:15:58.678Z,98315.73
2018-06-30T17:18:26.756Z,98318.53
2018-06-30T17:20:54.839Z,98317.66
2018-06-30T17:23:22.950Z,98314.95
2018-06-30T17:25:51.047Z,98317.70
2018-06-30T17:28:19.334Z,98321.32
2018-06-30T17:30:47.420Z,98315.84
2018-06-30T17:33:15.478Z,98322.90
2018-06-30T17:35:43.576Z,98318.16
2018-06-30T17:38:11.639Z,98316.42
2018-06-30T17:40:39.777Z,98316.47
2018-06-30T17:43:07.864Z,98312.75
2018-06-30T17:45:35.948Z,98313.95
2018-06-30T17:48:03.978Z,98314.93
2018-06-30T17:50:32.089Z,98319.26
2018-06-30T17:53:00.148Z,98318.77
2018-06-30T17:55:28.232Z,98319.45
2018-06-30T17:57:56.387Z,98316.39
2018-06-30T18:00:24.560Z,98312.80
2018-06-30T18:02:52.789Z,98316.06
2018-06-30T18:05:20.859Z,98320.88
2018-06-30T18:07:49.232Z,98316.07
2018-06-30T18:10:17.500Z,98322.25
2018-06-30T18:12:45.442Z,98319.56
2018-06-30T18:15:23.119Z,98321.45
2018-06-30T18:17:51.192Z,98322.14
2018-06-30T18:20:19.327Z,98323.31
2018-06-30T18:22:47.445Z,98333.11
2018-06-30T18:25:15.698Z,98327.81
2018-06-30T18:27:43.790Z,98334.32
2018-06-30T18:30:12.008Z,98337.18
2018-06-30T18:32:40.077Z,98338.78
2018-06-30T18:35:08.362Z,98342.30
2018-06-30T18:37:36.727Z,98341.34
2018-06-30T18:40:05.476Z,98339.77
2018-06-30T18:42:33.555Z,98341.55
2018-06-30T18:45:01.885Z,98337.02
2018-06-30T18:47:30.996Z,98340.61
2018-06-30T18:49:59.087Z,98341.85
2018-06-30T18:52:27.184Z,98342.75
2018-06-30T18:54:55.309Z,98343.64
2018-06-30T18:57:23.388Z,98342.00
2018-06-30T18:59:51.500Z,98348.27
2018-06-30T19:02:19.613Z,98348.28
2018-06-30T19:04:47.713Z,98349.17
2018-06-30T19:07:15.792Z,98353.72
2018-06-30T19:09:43.885Z,98351.34
2018-06-30T19:12:11.994Z,98355.20
2018-06-30T19:14:40.085Z,98360.20
2018-06-30T19:17:08.256Z,98368.12
2018-06-30T19:19:36.495Z,98369.45
2018-06-30T19:22:04.678Z,98372.89
2018-06-30T19:24:32.777Z,98382.36
2018-06-30T19:27:01.042Z,98376.65
2018-06-30T19:29:29.120Z,98377.00
2018-06-30T19:31:57.196Z,98380.88
2018-06-30T19:34:25.453Z,98390.25
2018-06-30T19:36:53.821Z,98391.43
2018-06-30T19:39:21.927Z,98392.92
2018-06-30T19:41:50.009Z,98395.69
2018-06-30T19:44:18.089Z,98393.24
2018-06-30T19:46:46.186Z,98395.83
2018-06-30T19:49:14.260Z,98399.86
2018-06-30T19:51:42.612Z,98401.44
2018-06-30T19:54:10.677Z,98412.38
2018-06-30T19:56:38.781Z,98409.81
2018-06-30T19:59:06.868Z,98414.09
2018-06-30T20:01:35.096Z,98418.05
2018-06-30T20:04:03.464Z,98419.61
2018-06-30T20:06:31.655Z,98425.10
2018-06-30T20:08:59.743Z,98428.41
2018-06-30T20:11:27.850Z,98427.41
2018-06-30T20:13:55.988Z,98425.83
2018-06-30T20:16:24.083Z,98430.37
2018-06-30T20:18:52.184Z,98430.48
2018-06-30T20:21:20.567Z,98439.81
2018-06-30T20:23:48.688Z,98442.88
2018-06-30T20:26:16.764Z,98443.18
2018-06-30T20:28:44.877Z,98444.11
2018-06-30T20:31:12.953Z,98443.66
2018-06-30T20:33:41.060Z,98443.23
2018-06-30T20:36:09.594Z,98451.65
2018-06-30T20:38:37.681Z,98459.16
2018-06-30T20:41:05.803Z,98456.36
2018-06-30T20:43:34.152Z,98459.03
2018-06-30T20:46:02.222Z,98465.09
2018-06-30T20:48:30.298Z,98465.66
2018-06-30T20:50:58.395Z,98467.33
2018-06-30T20:53:26.508Z,98472.20
2018-06-30T20:55:54.583Z,98472.98
2018-06-30T20:58:22.728Z,98475.33
2018-06-30T21:00:50.817Z,98487.70
2018-06-30T21:03:18.900Z,98487.02
2018-06-30T21:05:47.112Z,98492.36
2018-06-30T21:08:15.282Z,98492.73
2018-06-30T21:10:43.332Z,98496.70
2018-06-30T21:13:11.459Z,98495.56
2018-06-30T21:15:44.243Z,98493.59
2018-06-30T21:18:12.337Z,98504.94
2018-06-30T21:20:40.747Z,98506.53
2018-06-30T21:23:09.481Z,98507.23
2018-06-30T21:25:38.024Z,98510.94
2018-06-30T21:28:06.276Z,98512.64
2018-06-30T21:30:34.349Z,98518.68
2018-06-30T21:33:02.411Z,98509.44
